Weather at Kingaroy Airport

Public forecast

Using degrees Celsius for public forecast. Weather courtesy of forecast.io.

Closest aviation weather report (METAR) to Kingaroy Airport

Closest report is Toowoomba Wellcamp Airport, 58.7 nm (108.8 km) S.

2024/05/22 22:30 (retrieved 32 minutes ago)

YBWW 222230Z AUTO 17004KT 9999 // NCD 13/09 Q1025 RF000/0000

Closest aviation forecast (TAF) to Kingaroy Airport

Closest forecast is Toowoomba Wellcamp Airport, 58.7 nm (108.8 km) S.

2024/05/22 18:00 (retrieved 5 hours ago)

TAF YBWW 221706Z 2218/2318 VRB03KT 9999 FEW020 FM222300 19006KT CAVOK FM230900 09004KT CAVOK